Time;durP1;ratioP1;P1;durP2;ratioP2;P2;SDS_P1;SDS_P2;PMS_P1;PMS_P2;Temp;Humidity;BMP_temperature;BMP_pressure;BME280_temperature;BME280_humidity;BME280_pressure;Samples;Min_cycle;Max_cycle;Signal;HPM_P1;HPM_P2
2023/09/30 00:00:27;;;;;;;12.57;4.05;;;12.10;99.90;;;;;;4952458;28;20442;-58
2023/09/30 00:02:53;;;;;;;12.43;3.60;;;12.10;99.90;;;;;;4957037;28;20452;-58
2023/09/30 00:05:21;;;;;;;16.75;3.90;;;12.10;99.90;;;;;;4956941;28;20150;-58
2023/09/30 00:07:47;;;;;;;13.27;3.47;;;12.00;99.90;;;;;;4956228;28;20098;-58
2023/09/30 00:10:14;;;;;;;22.70;4.03;;;12.10;99.90;;;;;;4956483;28;20587;-58
2023/09/30 00:12:40;;;;;;;14.63;3.78;;;12.00;99.90;;;;;;4958968;28;20200;-57
2023/09/30 00:15:06;;;;;;;11.00;3.30;;;12.10;99.90;;;;;;4935271;28;20043;-57
2023/09/30 00:17:32;;;;;;;21.48;4.00;;;12.10;99.90;;;;;;4955456;28;20050;-57
2023/09/30 00:20:00;;;;;;;16.38;3.55;;;12.10;99.90;;;;;;4956758;28;20089;-58
2023/09/30 00:22:26;;;;;;;13.52;3.50;;;12.10;99.90;;;;;;4936541;28;20047;-58
2023/09/30 00:24:52;;;;;;;12.80;3.47;;;12.10;99.90;;;;;;4939162;28;20144;-58
2023/09/30 00:27:17;;;;;;;11.88;3.50;;;12.10;99.90;;;;;;4937810;28;20043;-59
2023/09/30 00:29:43;;;;;;;14.32;3.75;;;12.10;99.90;;;;;;4935436;28;20051;-58
2023/09/30 00:32:09;;;;;;;15.63;3.95;;;12.20;99.90;;;;;;4936158;28;20074;-58
2023/09/30 00:34:36;;;;;;;17.83;3.55;;;12.20;99.90;;;;;;4936532;28;20043;-58
2023/09/30 00:37:02;;;;;;;19.65;4.03;;;12.20;99.90;;;;;;4926745;28;20391;-58
2023/09/30 00:39:30;;;;;;;11.57;4.38;;;12.20;99.90;;;;;;4937002;28;20385;-58
2023/09/30 00:41:59;;;;;;;14.88;4.90;;;12.20;99.90;;;;;;4937404;28;20051;-58
2023/09/30 00:44:26;;;;;;;17.17;4.30;;;12.20;99.90;;;;;;4925931;28;20488;-59
2023/09/30 00:46:52;;;;;;;14.35;4.00;;;12.20;99.90;;;;;;4919841;29;20070;-57
2023/09/30 00:49:18;;;;;;;17.95;4.32;;;12.20;99.90;;;;;;4936130;28;20062;-58
2023/09/30 00:51:46;;;;;;;16.75;4.95;;;12.20;99.90;;;;;;4937922;28;20046;-57
2023/09/30 00:54:12;;;;;;;13.15;4.03;;;12.20;99.90;;;;;;4936882;28;20394;-58
2023/09/30 00:56:47;;;;;;;17.70;4.00;;;12.20;99.90;;;;;;4949728;28;20051;-57
2023/09/30 00:59:14;;;;;;;14.20;3.70;;;12.20;99.90;;;;;;4938771;28;20102;-58
2023/09/30 01:01:44;;;;;;;17.35;4.05;;;12.20;99.90;;;;;;4939399;28;20039;-58
2023/09/30 01:04:14;;;;;;;15.45;3.85;;;12.20;99.90;;;;;;4920968;28;20047;-58
2023/09/30 01:06:41;;;;;;;18.15;4.07;;;12.20;99.90;;;;;;4942420;28;20098;-58
2023/09/30 01:09:08;;;;;;;14.63;3.97;;;12.20;99.90;;;;;;4941450;28;20576;-58
2023/09/30 01:11:34;;;;;;;14.77;3.30;;;12.20;99.90;;;;;;4926459;28;20118;-58
2023/09/30 01:14:00;;;;;;;14.60;3.75;;;12.20;99.90;;;;;;4941241;28;20545;-56
2023/09/30 01:16:26;;;;;;;12.98;4.05;;;12.20;99.90;;;;;;4928239;29;20185;-58
2023/09/30 01:18:51;;;;;;;15.10;4.18;;;12.20;99.90;;;;;;4931035;28;20036;-58
2023/09/30 01:21:18;;;;;;;17.05;4.63;;;12.20;99.90;;;;;;4941991;28;20559;-58
2023/09/30 01:23:46;;;;;;;12.95;3.58;;;12.20;99.90;;;;;;4939414;28;20039;-58
2023/09/30 01:26:13;;;;;;;11.93;3.67;;;12.20;99.90;;;;;;4938889;28;20086;-58
2023/09/30 01:28:39;;;;;;;11.25;3.92;;;12.20;99.90;;;;;;4936611;28;20046;-58
2023/09/30 01:31:05;;;;;;;9.25;3.58;;;12.20;99.90;;;;;;4939419;28;20046;-58
2023/09/30 01:33:32;;;;;;;12.85;3.83;;;12.30;99.90;;;;;;4939557;28;20090;-57
2023/09/30 01:35:59;;;;;;;15.07;3.92;;;12.20;99.90;;;;;;4939338;28;20051;-59
2023/09/30 01:38:25;;;;;;;13.18;4.10;;;12.30;99.90;;;;;;4941697;28;20208;-58
2023/09/30 01:40:51;;;;;;;10.90;3.83;;;12.20;99.90;;;;;;4939868;28;20039;-58
2023/09/30 01:43:17;;;;;;;10.85;3.40;;;12.30;99.90;;;;;;4941197;28;20046;-58
2023/09/30 01:45:44;;;;;;;10.52;3.50;;;12.20;99.90;;;;;;4937252;28;20109;-58
2023/09/30 01:48:10;;;;;;;11.15;3.40;;;12.20;99.90;;;;;;4936868;28;20389;-58
2023/09/30 01:50:40;;;;;;;18.02;3.95;;;12.10;99.90;;;;;;4937402;28;20488;-58
2023/09/30 01:53:06;;;;;;;12.63;3.83;;;12.10;99.90;;;;;;4921149;28;20047;-58
2023/09/30 01:55:36;;;;;;;13.75;3.80;;;12.10;99.90;;;;;;4940986;28;20055;-58
2023/09/30 01:58:02;;;;;;;12.60;3.22;;;12.20;99.90;;;;;;4938796;28;20123;-57
2023/09/30 02:00:28;;;;;;;15.60;3.92;;;12.10;99.90;;;;;;4940475;28;20043;-58
2023/09/30 02:02:57;;;;;;;11.10;3.65;;;12.10;99.90;;;;;;4939293;28;20031;-58
2023/09/30 02:05:23;;;;;;;7.93;3.28;;;12.10;99.90;;;;;;4936901;28;20043;-59
2023/09/30 02:07:50;;;;;;;11.93;3.38;;;12.00;99.90;;;;;;4952701;28;20498;-57
2023/09/30 02:10:18;;;;;;;14.13;5.05;;;12.00;99.90;;;;;;4922498;28;20047;-58
2023/09/30 02:12:44;;;;;;;10.40;3.60;;;12.00;99.90;;;;;;4939859;28;20393;-57
2023/09/30 02:15:11;;;;;;;11.48;3.33;;;12.00;99.90;;;;;;4935944;28;20629;-59
2023/09/30 02:17:37;;;;;;;14.27;3.80;;;12.00;99.90;;;;;;4940017;28;20138;-58
2023/09/30 02:20:07;;;;;;;9.05;3.30;;;12.00;99.90;;;;;;4923854;28;20074;-58
2023/09/30 02:22:33;;;;;;;13.38;3.63;;;12.00;99.90;;;;;;4939905;28;20055;-57
2023/09/30 02:24:59;;;;;;;9.60;2.95;;;12.10;99.90;;;;;;4938141;28;20059;-58
2023/09/30 02:27:24;;;;;;;12.75;3.35;;;12.10;99.90;;;;;;4922798;28;20105;-58
2023/09/30 02:29:50;;;;;;;14.65;3.35;;;12.10;99.90;;;;;;4941214;28;20770;-57
2023/09/30 02:32:16;;;;;;;13.50;3.40;;;12.10;99.90;;;;;;4941498;28;20042;-58
2023/09/30 02:34:44;;;;;;;10.77;3.50;;;12.10;99.90;;;;;;4938589;28;20047;-58
2023/09/30 02:37:10;;;;;;;14.68;3.78;;;12.10;99.90;;;;;;4925946;28;20062;-56
2023/09/30 02:39:37;;;;;;;14.70;3.35;;;12.20;99.90;;;;;;4938272;28;20047;-58
2023/09/30 02:42:03;;;;;;;10.27;3.60;;;12.10;99.90;;;;;;4942117;28;20122;-57
2023/09/30 02:44:28;;;;;;;12.13;3.42;;;12.20;99.90;;;;;;4942018;28;20043;-58
2023/09/30 02:46:54;;;;;;;9.52;3.30;;;12.20;99.90;;;;;;4936801;28;20039;-57
2023/09/30 02:49:21;;;;;;;14.38;3.95;;;12.20;99.90;;;;;;4938234;28;20047;-57
2023/09/30 02:51:47;;;;;;;16.15;3.75;;;12.20;99.90;;;;;;4940871;28;20043;-58
2023/09/30 02:54:15;;;;;;;16.48;3.40;;;12.20;99.90;;;;;;4934521;28;20043;-58
2023/09/30 02:56:41;;;;;;;11.27;3.88;;;12.20;99.90;;;;;;4939652;28;20050;-57
2023/09/30 02:59:07;;;;;;;14.05;3.88;;;12.20;99.90;;;;;;4934794;28;20077;-58
2023/09/30 03:01:33;;;;;;;8.65;3.95;;;12.20;99.90;;;;;;4938010;28;20583;-59
2023/09/30 03:03:59;;;;;;;12.13;3.78;;;12.20;99.90;;;;;;4941867;28;20104;-58
2023/09/30 03:06:25;;;;;;;14.50;3.90;;;12.20;99.90;;;;;;4937893;28;20633;-58
2023/09/30 03:08:52;;;;;;;12.90;4.15;;;12.20;99.90;;;;;;4937220;28;20053;-59
2023/09/30 03:11:19;;;;;;;10.63;3.50;;;12.20;99.90;;;;;;4938598;28;20047;-57
2023/09/30 03:13:45;;;;;;;12.60;3.85;;;12.20;99.90;;;;;;4937753;28;20077;-59
2023/09/30 03:16:11;;;;;;;12.20;4.43;;;12.30;99.90;;;;;;4936327;28;20039;-58
2023/09/30 03:18:37;;;;;;;10.40;3.60;;;12.30;99.90;;;;;;4936391;28;20122;-57
2023/09/30 03:21:14;;;;;;;17.08;4.18;;;12.30;99.90;;;;;;4937105;28;20093;-58
2023/09/30 03:23:40;;;;;;;12.20;4.22;;;12.30;99.90;;;;;;4937835;28;20039;-58
2023/09/30 03:26:09;;;;;;;12.60;3.72;;;12.30;99.90;;;;;;4936971;28;20562;-58
2023/09/30 03:28:37;;;;;;;12.00;3.95;;;12.30;99.90;;;;;;4950616;28;20047;-57
2023/09/30 03:31:04;;;;;;;14.20;4.22;;;12.20;99.90;;;;;;4939397;28;20051;-58
2023/09/30 03:33:32;;;;;;;14.65;4.25;;;12.30;99.90;;;;;;4937698;28;20482;-57
2023/09/30 03:35:58;;;;;;;12.13;4.05;;;12.20;99.90;;;;;;4937780;28;20035;-58
2023/09/30 03:38:25;;;;;;;14.77;3.88;;;12.30;99.90;;;;;;4938950;28;20047;-58
2023/09/30 03:40:53;;;;;;;10.60;3.38;;;12.30;99.90;;;;;;4937332;28;20492;-57
2023/09/30 03:43:20;;;;;;;14.68;4.15;;;12.30;99.90;;;;;;4938324;28;20521;-58
2023/09/30 03:45:46;;;;;;;13.18;4.05;;;12.20;99.90;;;;;;4936851;28;20089;-57
2023/09/30 03:48:12;;;;;;;14.88;3.90;;;12.20;99.90;;;;;;4920358;29;20055;-57
2023/09/30 03:50:38;;;;;;;11.82;3.83;;;12.20;99.90;;;;;;4922885;29;20573;-58
2023/09/30 03:53:06;;;;;;;11.07;4.20;;;12.20;99.90;;;;;;4934602;28;20039;-58
2023/09/30 03:55:31;;;;;;;11.65;4.07;;;12.20;99.90;;;;;;4939407;28;20549;-58
2023/09/30 03:57:58;;;;;;;12.93;3.92;;;12.20;99.90;;;;;;4935657;28;20176;-57
2023/09/30 04:00:24;;;;;;;13.38;3.60;;;12.20;99.90;;;;;;4937063;28;20039;-58
2023/09/30 04:02:58;;;;;;;12.02;3.55;;;12.20;99.90;;;;;;4921998;28;20043;-57
2023/09/30 04:05:29;;;;;;;9.25;3.30;;;12.20;99.90;;;;;;4933787;28;20055;-58
2023/09/30 04:07:58;;;;;;;10.20;4.10;;;12.20;99.90;;;;;;4936049;28;20043;-58
2023/09/30 04:10:23;;;;;;;12.57;3.67;;;12.20;99.90;;;;;;4935964;28;20180;-55
2023/09/30 04:12:49;;;;;;;10.57;3.65;;;12.20;99.90;;;;;;4936965;28;20691;-57
2023/09/30 04:15:15;;;;;;;9.98;3.58;;;12.10;99.90;;;;;;4920071;28;20125;-57
2023/09/30 04:17:41;;;;;;;13.45;3.63;;;12.10;99.90;;;;;;4935989;28;20169;-58
2023/09/30 04:20:10;;;;;;;10.40;3.58;;;12.10;99.90;;;;;;4936989;28;20547;-58
2023/09/30 04:22:37;;;;;;;10.30;3.53;;;12.10;99.90;;;;;;4938959;28;20114;-58
2023/09/30 04:25:08;;;;;;;9.20;3.92;;;12.10;99.90;;;;;;4942417;28;20070;-59
2023/09/30 04:27:34;;;;;;;9.50;3.57;;;12.10;99.90;;;;;;4939985;28;20034;-58
2023/09/30 04:30:00;;;;;;;11.88;3.60;;;12.10;99.90;;;;;;4940445;28;20051;-58
2023/09/30 04:32:27;;;;;;;14.52;4.35;;;12.10;99.90;;;;;;4946073;28;20503;-58
2023/09/30 04:34:53;;;;;;;14.63;3.85;;;12.10;99.90;;;;;;4951348;28;20486;-57
2023/09/30 04:37:18;;;;;;;11.93;4.10;;;12.10;99.90;;;;;;4947860;28;20054;-57
2023/09/30 04:39:44;;;;;;;10.48;3.70;;;12.20;99.90;;;;;;4929598;28;20090;-58
2023/09/30 04:42:11;;;;;;;13.23;4.43;;;12.10;99.90;;;;;;4944807;28;20035;-58
2023/09/30 04:44:38;;;;;;;12.73;3.72;;;12.10;99.90;;;;;;4948312;28;20050;-58
2023/09/30 04:47:04;;;;;;;14.20;4.47;;;12.20;99.90;;;;;;4948358;28;20565;-58
2023/09/30 04:49:30;;;;;;;13.07;4.10;;;12.20;99.90;;;;;;4946963;28;20749;-57
2023/09/30 04:51:56;;;;;;;10.80;4.30;;;12.20;99.90;;;;;;4948989;28;20125;-58
2023/09/30 04:54:22;;;;;;;14.45;5.38;;;12.20;99.90;;;;;;4963043;28;20046;-57
2023/09/30 04:56:48;;;;;;;14.40;4.22;;;12.10;99.90;;;;;;4941691;28;20090;-58
2023/09/30 04:59:16;;;;;;;12.52;4.35;;;12.10;99.90;;;;;;4945364;28;20473;-58
2023/09/30 05:01:42;;;;;;;11.30;4.32;;;12.10;99.90;;;;;;4946059;28;20039;-58
2023/09/30 05:04:09;;;;;;;17.02;4.22;;;12.10;99.90;;;;;;4925016;28;20046;-57
2023/09/30 05:06:36;;;;;;;14.23;4.20;;;12.20;99.90;;;;;;4942720;28;20074;-58
2023/09/30 05:09:02;;;;;;;16.33;4.38;;;12.20;99.90;;;;;;4946294;28;20452;-59
2023/09/30 05:11:28;;;;;;;11.88;4.45;;;12.10;99.90;;;;;;4944217;28;20043;-58
2023/09/30 05:13:54;;;;;;;9.32;4.22;;;12.10;99.90;;;;;;4943853;28;20063;-58
2023/09/30 05:16:20;;;;;;;12.75;4.20;;;12.10;99.90;;;;;;4947238;28;20043;-59
2023/09/30 05:18:45;;;;;;;10.80;4.43;;;12.10;99.90;;;;;;4943539;28;20047;-58
2023/09/30 05:21:11;;;;;;;13.85;4.22;;;12.10;99.90;;;;;;4947678;28;20039;-59
2023/09/30 05:23:38;;;;;;;28.08;5.55;;;12.10;99.90;;;;;;4947819;28;20051;-58
2023/09/30 05:26:04;;;;;;;11.80;4.95;;;12.10;99.90;;;;;;4959259;28;20053;-58
2023/09/30 05:28:31;;;;;;;16.10;5.03;;;12.10;99.90;;;;;;4953745;28;20498;-58
2023/09/30 05:30:57;;;;;;;16.35;5.18;;;12.00;99.90;;;;;;4937087;28;20055;-58
2023/09/30 05:33:22;;;;;;;12.88;5.13;;;12.00;99.90;;;;;;4941553;28;20046;-58
2023/09/30 05:35:48;;;;;;;11.65;4.70;;;12.00;99.90;;;;;;4959788;28;20039;-58
2023/09/30 05:38:14;;;;;;;12.15;5.20;;;12.00;99.90;;;;;;4956154;28;20105;-57
2023/09/30 05:44:20;;;;;;;17.60;6.10;;;12.00;99.90;;;;;;4955267;28;20699;-58
2023/09/30 05:46:47;;;;;;;13.43;5.22;;;12.00;99.90;;;;;;4960289;28;20089;-58
2023/09/30 05:49:13;;;;;;;13.00;5.50;;;12.00;99.90;;;;;;4945874;28;20586;-58
2023/09/30 05:51:40;;;;;;;13.93;5.00;;;11.90;99.90;;;;;;4959207;28;20052;-58
2023/09/30 05:54:09;;;;;;;14.95;5.45;;;12.00;99.90;;;;;;4957037;28;20595;-58
2023/09/30 05:56:38;;;;;;;15.40;6.03;;;11.90;99.90;;;;;;4953465;28;20526;-58
2023/09/30 05:59:05;;;;;;;13.75;5.78;;;11.90;99.90;;;;;;4939099;28;20041;-57
2023/09/30 06:01:35;;;;;;;18.90;6.40;;;11.90;99.90;;;;;;4960993;28;20042;-58
2023/09/30 06:04:01;;;;;;;13.95;5.85;;;11.90;99.90;;;;;;4955904;28;20117;-58
2023/09/30 06:06:29;;;;;;;17.02;6.07;;;11.90;99.90;;;;;;4958592;28;20050;-58
2023/09/30 06:08:58;;;;;;;17.73;6.95;;;11.90;99.90;;;;;;4958512;28;21317;-58
2023/09/30 06:11:24;;;;;;;13.48;6.13;;;11.90;99.90;;;;;;4954882;28;20053;-57
2023/09/30 06:13:54;;;;;;;13.85;6.15;;;11.90;99.90;;;;;;4956346;28;20363;-58
2023/09/30 06:16:20;;;;;;;15.57;6.35;;;11.90;99.90;;;;;;4961079;28;20498;-58
2023/09/30 06:18:46;;;;;;;26.00;7.47;;;11.80;99.90;;;;;;4947506;28;20046;-58
2023/09/30 06:21:14;;;;;;;18.73;8.27;;;11.80;99.90;;;;;;4964108;28;20043;-58
2023/09/30 06:23:40;;;;;;;13.75;6.75;;;11.90;99.90;;;;;;4960570;28;20503;-57
2023/09/30 06:26:06;;;;;;;16.45;7.57;;;11.90;99.90;;;;;;4944526;28;20199;-59
2023/09/30 06:28:38;;;;;;;19.63;7.35;;;11.90;99.90;;;;;;4938237;28;20039;-57
2023/09/30 06:31:06;;;;;;;15.43;7.23;;;11.90;99.90;;;;;;4938731;28;20069;-58
2023/09/30 06:33:32;;;;;;;21.05;7.78;;;12.00;99.90;;;;;;4938288;28;20295;-58
2023/09/30 06:36:01;;;;;;;19.90;7.60;;;12.00;99.90;;;;;;4938576;28;20090;-56
2023/09/30 06:38:27;;;;;;;19.58;7.60;;;12.00;99.90;;;;;;4924173;29;21025;-57
2023/09/30 06:40:53;;;;;;;18.23;7.80;;;12.00;99.90;;;;;;4938441;28;20062;-58
2023/09/30 06:43:20;;;;;;;17.08;7.18;;;12.10;99.90;;;;;;4941508;28;20130;-57
2023/09/30 06:45:46;;;;;;;17.77;7.22;;;12.10;99.90;;;;;;4938892;28;20507;-58
2023/09/30 06:48:12;;;;;;;16.40;7.22;;;12.10;99.90;;;;;;4942426;28;20050;-57
2023/09/30 06:50:52;;;;;;;16.48;8.05;;;12.20;99.90;;;;;;4943587;28;20507;-57
2023/09/30 06:53:19;;;;;;;21.00;8.32;;;12.20;99.90;;;;;;4942682;28;20514;-58
2023/09/30 06:55:45;;;;;;;14.02;7.22;;;12.20;99.90;;;;;;4924801;28;20035;-57
2023/09/30 06:58:11;;;;;;;16.38;7.53;;;12.30;99.90;;;;;;4942018;28;20061;-58
2023/09/30 07:00:38;;;;;;;20.48;7.28;;;12.40;99.90;;;;;;4934397;28;20381;-58
2023/09/30 07:03:04;;;;;;;16.20;7.60;;;12.40;99.90;;;;;;4932670;28;20035;-58
2023/09/30 07:05:30;;;;;;;15.63;7.65;;;12.50;99.90;;;;;;4940956;28;20122;-58
2023/09/30 07:07:56;;;;;;;14.35;8.02;;;12.50;99.90;;;;;;4942318;28;20061;-58
2023/09/30 07:10:22;;;;;;;19.85;7.85;;;12.60;99.90;;;;;;4934427;28;20188;-58
2023/09/30 07:12:48;;;;;;;16.95;7.55;;;12.70;99.90;;;;;;4943795;29;20082;-58
2023/09/30 07:15:14;;;;;;;18.38;8.00;;;12.80;99.90;;;;;;4939986;28;20039;-58
2023/09/30 07:17:40;;;;;;;17.85;7.85;;;12.80;99.90;;;;;;4922739;29;20575;-59
2023/09/30 07:20:07;;;;;;;22.23;7.40;;;12.90;99.90;;;;;;4924100;29;20047;-57
2023/09/30 07:22:35;;;;;;;17.40;7.22;;;13.00;99.90;;;;;;4940675;28;20043;-58
2023/09/30 07:25:02;;;;;;;20.15;7.70;;;13.00;99.90;;;;;;4948086;28;20089;-58
2023/09/30 07:27:27;;;;;;;20.35;7.32;;;13.10;99.90;;;;;;4951719;28;20542;-58
2023/09/30 07:29:53;;;;;;;19.45;7.50;;;13.20;99.90;;;;;;4935829;28;20034;-59
2023/09/30 07:32:22;;;;;;;13.52;6.90;;;13.20;99.90;;;;;;4956740;28;20047;-59
2023/09/30 07:34:48;;;;;;;17.80;6.43;;;13.20;99.90;;;;;;4960864;28;20125;-58
2023/09/30 07:37:14;;;;;;;23.77;7.15;;;13.30;99.90;;;;;;4958633;28;20043;-58
2023/09/30 07:39:39;;;;;;;16.40;7.22;;;13.40;99.90;;;;;;4960868;28;20109;-57
2023/09/30 07:42:08;;;;;;;16.02;6.57;;;13.40;99.90;;;;;;4960915;28;20495;-58
2023/09/30 07:44:38;;;;;;;16.65;8.02;;;13.50;99.90;;;;;;4939039;28;20058;-58
2023/09/30 07:47:06;;;;;;;13.82;7.47;;;13.50;99.90;;;;;;4955147;28;20047;-58
2023/09/30 07:49:32;;;;;;;20.98;7.85;;;13.60;99.90;;;;;;4962222;28;20077;-58
2023/09/30 07:51:58;;;;;;;16.23;7.05;;;13.60;99.90;;;;;;4960586;28;20050;-57
2023/09/30 07:54:24;;;;;;;14.57;7.25;;;13.70;99.90;;;;;;4962080;28;20054;-57
2023/09/30 07:56:49;;;;;;;13.15;7.22;;;13.70;99.90;;;;;;4946528;28;20045;-58
2023/09/30 07:59:15;;;;;;;15.00;7.60;;;13.80;99.90;;;;;;4945300;28;20049;-58
2023/09/30 08:01:41;;;;;;;16.80;6.82;;;13.90;99.90;;;;;;4946467;28;20050;-58
2023/09/30 08:04:07;;;;;;;19.38;7.40;;;14.00;99.90;;;;;;4957231;28;20049;-59
2023/09/30 08:06:33;;;;;;;18.27;7.15;;;14.10;99.90;;;;;;4963351;28;20043;-59
2023/09/30 08:08:58;;;;;;;23.23;7.70;;;14.10;99.90;;;;;;4968140;28;20038;-58
2023/09/30 08:11:27;;;;;;;18.50;7.18;;;14.30;99.90;;;;;;4968839;28;20646;-59
2023/09/30 08:13:54;;;;;;;18.02;6.45;;;14.30;99.90;;;;;;4967035;28;20050;-58
2023/09/30 08:16:20;;;;;;;17.15;6.68;;;14.50;99.90;;;;;;4965437;28;20553;-58
2023/09/30 08:18:45;;;;;;;18.63;6.78;;;14.60;99.90;;;;;;4949120;28;20038;-58
2023/09/30 08:21:11;;;;;;;14.52;6.22;;;14.60;99.90;;;;;;4948613;28;20046;-59
2023/09/30 08:23:38;;;;;;;20.05;6.95;;;14.70;99.90;;;;;;4964503;28;20054;-59
2023/09/30 08:26:07;;;;;;;14.50;6.00;;;14.80;99.90;;;;;;4962096;28;20097;-58
2023/09/30 08:28:35;;;;;;;14.07;6.68;;;14.90;99.90;;;;;;4930989;29;20087;-58
2023/09/30 08:31:05;;;;;;;10.77;5.80;;;15.00;99.90;;;;;;4945168;28;20047;-59
2023/09/30 08:33:35;;;;;;;22.85;6.60;;;15.20;99.90;;;;;;4947346;29;20041;-58
2023/09/30 08:36:07;;;;;;;15.57;5.70;;;15.30;99.90;;;;;;4942729;28;20307;-58
2023/09/30 08:38:36;;;;;;;11.48;5.38;;;15.40;99.90;;;;;;4948227;28;20054;-58
2023/09/30 08:41:02;;;;;;;18.08;6.10;;;15.50;99.90;;;;;;4948991;29;20454;-59
2023/09/30 08:43:30;;;;;;;17.60;6.00;;;15.60;99.90;;;;;;4948184;28;20043;-58
2023/09/30 08:45:57;;;;;;;16.85;5.72;;;15.80;99.90;;;;;;4945201;28;20129;-57
2023/09/30 08:48:27;;;;;;;13.45;5.03;;;15.90;99.90;;;;;;4946441;28;20121;-59
2023/09/30 08:50:57;;;;;;;15.30;5.40;;;16.00;99.90;;;;;;4948529;28;20451;-59
2023/09/30 08:53:24;;;;;;;12.48;5.55;;;16.10;99.90;;;;;;4947305;28;20493;-59
2023/09/30 08:55:56;;;;;;;12.75;4.90;;;16.20;99.90;;;;;;4947093;28;20054;-58
2023/09/30 08:58:27;;;;;;;14.23;4.93;;;16.40;99.90;;;;;;4946221;28;20514;-58
2023/09/30 09:00:53;;;;;;;18.70;5.40;;;16.40;99.90;;;;;;4946684;29;20038;-59
2023/09/30 09:03:20;;;;;;;12.65;4.70;;;16.60;99.90;;;;;;4946608;29;20047;-59
2023/09/30 09:05:54;;;;;;;17.23;4.75;;;16.70;99.90;;;;;;4930516;29;20039;-59
2023/09/30 09:08:23;;;;;;;10.82;3.50;;;16.80;99.90;;;;;;4930653;29;20126;-59
2023/09/30 09:10:56;;;;;;;12.82;3.88;;;16.90;99.90;;;;;;4947697;28;20431;-59
2023/09/30 09:13:22;;;;;;;12.80;3.85;;;17.10;99.90;;;;;;4946361;28;20054;-59
2023/09/30 09:15:48;;;;;;;13.32;3.85;;;17.20;99.90;;;;;;4940677;28;20055;-59
2023/09/30 09:18:32;;;;;;;12.23;3.85;;;17.30;99.90;;;;;;4931024;29;20042;-59
2023/09/30 09:21:12;;;;;;;14.07;3.88;;;17.40;99.90;;;;;;4946866;28;20040;-59
2023/09/30 09:23:42;;;;;;;12.38;4.50;;;17.50;99.90;;;;;;4948376;28;20393;-59
2023/09/30 09:26:10;;;;;;;12.40;3.90;;;17.60;99.90;;;;;;4947416;29;20047;-59
2023/09/30 09:28:39;;;;;;;15.63;4.68;;;17.80;99.90;;;;;;4944875;29;20062;-59
2023/09/30 09:31:27;;;;;;;13.38;4.00;;;17.90;99.90;;;;;;4944969;29;20666;-58
2023/09/30 09:33:55;;;;;;;13.27;3.70;;;18.00;99.90;;;;;;4946800;29;20476;-58
2023/09/30 09:36:37;;;;;;;12.63;2.92;;;18.10;99.90;;;;;;4945417;29;20051;-57
2023/09/30 09:39:03;;;;;;;7.55;2.83;;;18.10;99.90;;;;;;4946338;29;20402;-59
2023/09/30 09:41:28;;;;;;;12.50;3.63;;;18.30;99.90;;;;;;4946768;29;20042;-58
2023/09/30 09:43:58;;;;;;;14.02;3.30;;;18.40;99.90;;;;;;4945851;28;20153;-60
2023/09/30 09:46:25;;;;;;;6.95;2.67;;;18.40;99.90;;;;;;4944914;28;20531;-59
2023/09/30 09:48:53;;;;;;;13.10;3.00;;;18.50;99.90;;;;;;4940204;28;20150;-59
2023/09/30 09:51:21;;;;;;;10.77;2.80;;;18.50;99.90;;;;;;4927636;29;20094;-59
2023/09/30 09:53:50;;;;;;;12.60;3.05;;;18.60;99.90;;;;;;4947301;28;20046;-59
2023/09/30 09:56:16;;;;;;;16.88;3.17;;;18.60;99.90;;;;;;4946601;28;20047;-58
2023/09/30 09:58:43;;;;;;;10.82;3.13;;;18.70;99.90;;;;;;4945949;28;20097;-59
2023/09/30 10:01:10;;;;;;;13.02;3.10;;;18.80;99.90;;;;;;4944857;28;20046;-58
2023/09/30 10:03:38;;;;;;;11.60;3.13;;;18.80;99.90;;;;;;4945894;28;20075;-59
2023/09/30 10:06:05;;;;;;;9.35;2.55;;;18.80;99.90;;;;;;4946208;28;20484;-59
2023/09/30 10:08:44;;;;;;;8.93;2.78;;;18.80;99.90;;;;;;4946286;28;20043;-58
2023/09/30 10:11:20;;;;;;;15.50;2.85;;;18.90;99.90;;;;;;4929531;28;20119;-58
2023/09/30 10:13:53;;;;;;;10.10;2.65;;;19.10;99.90;;;;;;4944516;28;20475;-60
2023/09/30 10:16:37;;;;;;;12.43;2.40;;;19.40;99.90;;;;;;4945282;28;20850;-58
2023/09/30 10:19:09;;;;;;;10.20;2.72;;;19.60;99.90;;;;;;4945597;28;20035;-59
2023/09/30 10:21:35;;;;;;;;;;;19.80;99.90;;;;;;4928541;28;20487;-58
2023/09/30 10:24:23;;;;;;;8.07;2.35;;;20.00;99.90;;;;;;4928767;28;19988;-59
2023/09/30 10:27:29;;;;;;;10.50;2.80;;;19.80;99.90;;;;;;4946971;28;20047;-58
2023/09/30 10:30:16;;;;;;;7.63;2.20;;;19.70;99.90;;;;;;4946087;28;20566;-59
2023/09/30 10:32:54;;;;;;;8.20;2.50;;;19.50;99.90;;;;;;4946689;28;20078;-59
2023/09/30 10:35:32;;;;;;;9.52;2.20;;;19.40;99.90;;;;;;4946316;29;20047;-57
2023/09/30 10:38:27;;;;;;;7.95;2.45;;;19.50;99.90;;;;;;4946648;28;20039;-59
2023/09/30 10:40:53;;;;;;;9.10;2.30;;;19.70;99.90;;;;;;4946010;28;20098;-59
2023/09/30 10:43:33;;;;;;;6.97;2.00;;;20.00;99.90;;;;;;4959671;28;20620;-60
2023/09/30 10:46:00;;;;;;;10.73;2.15;;;20.30;99.90;;;;;;4944104;28;20496;-59
2023/09/30 10:48:26;;;;;;;11.52;2.42;;;20.50;99.90;;;;;;4944187;28;20125;-60
2023/09/30 10:50:56;;;;;;;7.22;1.90;;;20.70;99.90;;;;;;4947269;28;20043;-60
2023/09/30 10:53:23;;;;;;;10.40;1.92;;;20.80;99.90;;;;;;4928714;29;20047;-60
2023/09/30 10:55:59;;;;;;;9.95;2.25;;;20.70;99.90;;;;;;4944463;28;20047;-58
2023/09/30 10:58:47;;;;;;;9.25;2.20;;;20.80;99.90;;;;;;4943656;28;20090;-59
2023/09/30 11:01:21;;;;;;;6.63;1.83;;;21.00;99.90;;;;;;4943410;28;20039;-59
2023/09/30 11:03:50;;;;;;;8.52;2.05;;;20.90;99.90;;;;;;4943317;28;20039;-59
2023/09/30 11:06:20;;;;;;;10.93;2.30;;;20.60;99.90;;;;;;4945462;28;20039;-60
2023/09/30 11:08:47;;;;;;;7.32;2.10;;;20.40;99.90;;;;;;4944996;28;20043;-59
2023/09/30 11:11:14;;;;;;;10.95;2.30;;;20.30;99.90;;;;;;4929861;29;20057;-59
2023/09/30 11:13:40;;;;;;;6.90;2.22;;;20.10;99.90;;;;;;4942793;29;20106;-60
2023/09/30 11:16:07;;;;;;;10.77;2.53;;;20.00;99.90;;;;;;4943637;29;20488;-57
2023/09/30 11:18:33;;;;;;;7.50;1.95;;;19.80;99.90;;;;;;4944131;29;20047;-59
2023/09/30 11:21:05;;;;;;;10.10;2.17;;;19.70;99.90;;;;;;4946248;29;20039;-59
2023/09/30 11:23:32;;;;;;;9.15;1.92;;;19.60;99.90;;;;;;4946028;28;20096;-59
2023/09/30 11:25:58;;;;;;;6.13;1.27;;;19.40;99.90;;;;;;4944560;28;20366;-59
2023/09/30 11:28:26;;;;;;;6.18;1.42;;;19.30;99.90;;;;;;4943835;29;20047;-58
2023/09/30 11:30:59;;;;;;;6.25;1.55;;;19.20;99.90;;;;;;4942402;29;20059;-59
2023/09/30 11:33:25;;;;;;;5.13;1.38;;;19.20;99.90;;;;;;4944564;29;20047;-59
2023/09/30 11:36:02;;;;;;;9.07;1.83;;;19.20;99.90;;;;;;4945024;28;20561;-57
2023/09/30 11:38:28;;;;;;;5.85;1.50;;;19.10;99.90;;;;;;4944583;28;20061;-59
2023/09/30 11:41:06;;;;;;;4.63;1.58;;;19.10;99.90;;;;;;4939224;28;20495;-59
2023/09/30 11:43:33;;;;;;;4.88;1.58;;;19.10;99.90;;;;;;4958191;28;20496;-59
2023/09/30 11:46:10;;;;;;;6.75;1.60;;;19.00;99.90;;;;;;4943562;29;21094;-59
2023/09/30 11:49:08;;;;;;;7.82;1.70;;;19.00;99.90;;;;;;4927833;29;20057;-59
2023/09/30 11:51:47;;;;;;;7.25;1.83;;;19.00;99.90;;;;;;4944377;29;20448;-59
2023/09/30 11:54:14;;;;;;;8.70;1.55;;;19.00;99.90;;;;;;4926064;29;20120;-59
2023/09/30 11:56:40;;;;;;;11.32;2.22;;;18.90;99.90;;;;;;4944417;29;20443;-58
2023/09/30 11:59:06;;;;;;;11.63;2.20;;;18.90;99.90;;;;;;4928340;29;20384;-59
2023/09/30 12:01:32;;;;;;;6.32;1.63;;;18.90;99.90;;;;;;4942843;29;20082;-58
2023/09/30 12:03:59;;;;;;;7.35;1.92;;;19.00;99.90;;;;;;4943361;29;20039;-59
2023/09/30 12:06:25;;;;;;;10.77;2.00;;;19.00;99.90;;;;;;4944085;29;20046;-59
2023/09/30 12:08:51;;;;;;;6.68;1.67;;;19.00;99.90;;;;;;4945004;28;20031;-59
2023/09/30 12:11:18;;;;;;;9.80;2.35;;;19.00;99.90;;;;;;4943961;29;20071;-58
2023/09/30 12:13:44;;;;;;;8.63;1.70;;;19.00;99.90;;;;;;4942105;29;20186;-60
2023/09/30 12:16:13;;;;;;;5.85;1.58;;;19.10;99.90;;;;;;4937993;28;20098;-59
2023/09/30 12:18:40;;;;;;;7.75;1.42;;;19.20;99.90;;;;;;4944202;28;20043;-59
2023/09/30 12:21:10;;;;;;;9.63;1.73;;;19.40;99.90;;;;;;4945718;29;20570;-59
2023/09/30 12:23:37;;;;;;;8.52;1.95;;;19.60;99.90;;;;;;4947459;28;20168;-59
2023/09/30 12:26:05;;;;;;;5.03;1.55;;;19.80;99.90;;;;;;4962397;28;20062;-59
2023/09/30 12:28:32;;;;;;;4.85;1.50;;;19.90;99.90;;;;;;4955450;28;20048;-59
2023/09/30 12:30:59;;;;;;;6.75;1.65;;;20.00;99.90;;;;;;4961287;28;20053;-58
2023/09/30 12:33:24;;;;;;;8.57;1.90;;;20.20;99.90;;;;;;4963857;28;20058;-57
2023/09/30 12:35:51;;;;;;;9.90;2.58;;;20.50;99.90;;;;;;4962476;28;20035;-60
2023/09/30 12:38:17;;;;;;;6.90;1.83;;;20.70;99.90;;;;;;4963718;28;20034;-59
2023/09/30 12:40:43;;;;;;;8.00;1.58;;;20.70;99.90;;;;;;4961490;28;20045;-59
2023/09/30 12:43:10;;;;;;;8.02;1.63;;;20.70;99.90;;;;;;4962450;28;20039;-59
2023/09/30 12:45:38;;;;;;;6.18;1.80;;;20.70;99.90;;;;;;4962127;28;20069;-59